Decoded Metar for KBLU (EMIGRANT GAP in CA, USA) (IATA:BLU) | Meteo·Mobile Aviation Weather
aviador You're here:

KBLU Decoded Metar

EMIGRANT GAP in CA, USA
Report Time2018-10-23 09:52:00
UTC Time2018-10-23 10:43:21
Flight Rules vfr VFR
Wind040° at 03 kt
W.Decomp.*RWY 33: 1.8 kt HW 2.4 kt RCW
W.Rank040° ranks 7
Current wind is below 040° avg. (5.1)
Visibility9999 m
Phenomena:N/A
Clouds:N/A
Expected CloudBase > 6,400 ft AGL from Temp-Dew spread
CeilingNone
Temp11°C (ISA +6)
Dew Point-5°C (32% RH)
AAT7.3°C
QNH1019 hPa
Density Alt5,906 ft
Elevation5,279 ft
Report Wrong Elevation
Raw Report
KBLU 230952Z AUTO 04003KT 10SM CLR 11/M05 A3009 RMK AO2 SLP127
T01111050=

Extra information for KBLU:More info

Metar Taf Metar & Taf Last 4 Metars F.Rules Stats Wind Profile Meteogram Temp Stats Airport Information Weather charts Add Link Nearby VenuesMetar ALERT Operation Metar Decoded Social comments

AIRNAV info for KBLU